Terminal Aerodrome Forecast
Issued by NWS

Home | Current Version | Previous Version | Text Only | Print | Product List | Glossary On
Versions: 1 2 3 4 5 6 7 8 9 10 11 12 13 14 15 16 17 18 19
000
FTUS45 KBOI 260415 AAB
TAFBKE
TAF AMD
KBKE 260415Z 2604/2624 20015G25KT P6SM -SHRA BKN060
     FM260800 25012KT P6SM VCSH OVC040
     FM261300 28010G20KT P6SM SCT060 BKN080=

USA.gov is the U.S. government's official web portal to all federal, state and local government web resources and services.